createdAt,value
2022-10-22T00:00:02.495Z,996.84
2022-10-22T00:01:02.568Z,996.88
2022-10-22T00:02:02.606Z,996.85
2022-10-22T00:03:02.701Z,996.86
2022-10-22T00:04:02.603Z,996.86
2022-10-22T00:05:02.374Z,996.89
2022-10-22T00:06:02.453Z,996.98
2022-10-22T00:07:02.299Z,996.99
2022-10-22T00:08:02.286Z,997.02
2022-10-22T00:09:02.340Z,997.02
2022-10-22T00:10:02.285Z,997.00
2022-10-22T00:11:02.256Z,996.98
2022-10-22T00:12:02.235Z,996.98
2022-10-22T00:13:02.210Z,996.94
2022-10-22T00:14:02.189Z,996.97
2022-10-22T00:15:02.188Z,996.97
2022-10-22T00:16:02.190Z,996.94
2022-10-22T00:17:02.141Z,996.97
2022-10-22T00:18:02.140Z,996.96
2022-10-22T00:19:02.131Z,996.95
2022-10-22T00:20:02.139Z,996.92
2022-10-22T00:21:02.107Z,996.93
2022-10-22T00:22:02.093Z,996.91
2022-10-22T00:23:02.108Z,996.91
2022-10-22T00:24:02.051Z,996.90
2022-10-22T00:25:02.109Z,996.89
2022-10-22T00:26:02.070Z,996.89
2022-10-22T00:27:02.019Z,996.87
2022-10-22T00:28:02.001Z,996.86
2022-10-22T00:29:01.999Z,996.85
2022-10-22T00:30:01.987Z,996.81
2022-10-22T00:31:01.980Z,996.76
2022-10-22T00:32:01.963Z,996.71
2022-10-22T00:33:01.979Z,996.70
2022-10-22T00:34:01.921Z,996.69
2022-10-22T00:35:01.913Z,996.69
2022-10-22T00:36:01.918Z,996.64
2022-10-22T00:37:01.889Z,996.67
2022-10-22T00:38:01.871Z,996.72
2022-10-22T00:39:01.861Z,996.72
2022-10-22T00:40:01.852Z,996.75
2022-10-22T00:42:01.847Z,996.74
2022-10-22T00:43:01.811Z,996.71
2022-10-22T00:44:01.784Z,996.64
2022-10-22T00:45:01.781Z,996.65
2022-10-22T00:46:01.770Z,996.62
2022-10-22T00:47:01.770Z,996.62
2022-10-22T00:48:01.734Z,996.62
2022-10-22T00:49:01.720Z,996.60
2022-10-22T00:50:01.705Z,996.61
2022-10-22T00:51:01.700Z,996.60
2022-10-22T00:52:01.692Z,996.61
2022-10-22T00:53:01.681Z,996.57
2022-10-22T00:54:01.652Z,996.60
2022-10-22T00:55:01.653Z,996.62
2022-10-22T00:56:01.629Z,996.61
2022-10-22T00:57:01.640Z,996.60
2022-10-22T00:58:01.584Z,996.62
2022-10-22T00:59:01.597Z,996.64
2022-10-22T01:00:01.572Z,996.67
2022-10-22T01:01:01.630Z,996.69
2022-10-22T01:02:01.565Z,996.70
2022-10-22T01:03:01.541Z,996.66
2022-10-22T01:04:01.530Z,996.71
2022-10-22T01:05:01.515Z,996.67
2022-10-22T01:06:01.498Z,996.68
2022-10-22T01:07:01.497Z,996.72
2022-10-22T01:08:01.514Z,996.72
2022-10-22T01:09:01.570Z,996.74
2022-10-22T01:10:01.451Z,996.76
2022-10-22T01:11:01.452Z,996.78
2022-10-22T01:12:01.413Z,996.79
2022-10-22T01:13:01.454Z,996.82
2022-10-22T01:14:01.402Z,996.80
2022-10-22T01:15:01.363Z,996.78
2022-10-22T01:16:01.391Z,996.79
2022-10-22T01:17:01.351Z,996.81
2022-10-22T01:18:01.335Z,996.76
2022-10-22T01:19:01.330Z,996.76
2022-10-22T01:20:01.313Z,996.77
2022-10-22T01:21:01.310Z,996.74
2022-10-22T01:22:01.300Z,996.76
2022-10-22T01:23:01.280Z,996.76
2022-10-22T01:24:01.265Z,996.79
2022-10-22T01:25:01.260Z,996.80
2022-10-22T01:26:01.212Z,996.81
2022-10-22T01:27:01.236Z,996.82
2022-10-22T01:28:01.209Z,996.79
2022-10-22T01:29:01.180Z,996.79
2022-10-22T01:30:01.174Z,996.81
2022-10-22T01:31:01.164Z,996.75
2022-10-22T01:32:01.169Z,996.80
2022-10-22T01:33:01.143Z,996.82
2022-10-22T01:34:01.127Z,996.86
2022-10-22T01:35:01.101Z,996.84
2022-10-22T01:36:01.093Z,996.87
2022-10-22T01:37:01.096Z,996.89
2022-10-22T01:38:01.072Z,996.89
2022-10-22T01:39:01.036Z,996.90
2022-10-22T01:40:01.042Z,996.91
2022-10-22T01:41:01.022Z,996.89
2022-10-22T01:42:01.042Z,996.88
2022-10-22T01:43:01.005Z,996.84
2022-10-22T01:44:00.983Z,996.89
2022-10-22T01:45:00.974Z,996.93
2022-10-22T01:46:01.016Z,996.95
2022-10-22T01:47:00.973Z,996.92
2022-10-22T01:48:00.936Z,996.94
2022-10-22T01:49:00.924Z,996.93
2022-10-22T01:50:00.903Z,996.97
2022-10-22T01:51:00.893Z,996.99
2022-10-22T01:52:00.893Z,997.02
2022-10-22T01:53:00.861Z,997.02
2022-10-22T01:54:00.854Z,997.01
2022-10-22T01:55:00.834Z,997.02
2022-10-22T01:56:00.821Z,997.01
2022-10-22T01:57:00.821Z,996.95
2022-10-22T01:58:00.803Z,996.91
2022-10-22T01:59:00.784Z,996.83
2022-10-22T02:00:00.778Z,996.86
2022-10-22T02:01:00.852Z,996.85
2022-10-22T02:02:00.751Z,996.85
2022-10-22T02:03:07.900Z,996.87
2022-10-22T02:04:00.719Z,996.86
2022-10-22T02:05:00.698Z,996.84
2022-10-22T02:06:00.710Z,996.84
2022-10-22T02:07:00.690Z,996.82
2022-10-22T02:08:00.678Z,996.87
2022-10-22T02:09:00.697Z,996.84
2022-10-22T02:10:00.643Z,996.83
2022-10-22T02:11:00.650Z,996.84
2022-10-22T02:12:00.627Z,996.81
2022-10-22T02:13:00.590Z,996.78
2022-10-22T02:14:00.581Z,996.73
2022-10-22T02:15:00.571Z,996.64
2022-10-22T02:16:00.570Z,996.54
2022-10-22T02:17:00.561Z,996.51
2022-10-22T02:18:00.537Z,996.44
2022-10-22T02:19:00.520Z,996.47
2022-10-22T02:20:00.501Z,996.52
2022-10-22T02:21:00.544Z,996.57
2022-10-22T02:22:00.499Z,996.60
2022-10-22T02:23:00.460Z,996.59
2022-10-22T02:24:00.468Z,996.54
2022-10-22T02:25:00.440Z,996.54
2022-10-22T02:26:00.421Z,996.55
2022-10-22T02:27:00.439Z,996.59
2022-10-22T02:28:00.400Z,996.66
2022-10-22T02:29:00.373Z,996.73
2022-10-22T02:30:00.372Z,996.73
2022-10-22T02:31:00.367Z,996.75
2022-10-22T02:32:00.360Z,996.80
2022-10-22T02:33:00.355Z,996.87
2022-10-22T02:34:00.320Z,996.91
2022-10-22T02:35:00.300Z,996.99
2022-10-22T02:36:00.289Z,997.04
2022-10-22T02:37:00.302Z,997.06
2022-10-22T02:38:00.271Z,997.13
2022-10-22T02:39:00.242Z,997.12
2022-10-22T02:40:00.249Z,997.12
2022-10-22T02:41:00.219Z,997.15
2022-10-22T02:42:00.231Z,997.16
2022-10-22T02:43:00.193Z,997.20
2022-10-22T02:44:00.192Z,997.20
2022-10-22T02:45:00.164Z,997.22
2022-10-22T02:46:00.172Z,997.21
2022-10-22T02:47:00.152Z,997.19
2022-10-22T02:48:00.131Z,997.23
2022-10-22T02:49:00.115Z,997.22
2022-10-22T02:50:00.112Z,997.24
2022-10-22T02:51:00.084Z,997.23
2022-10-22T02:52:00.092Z,997.27
2022-10-22T02:53:00.051Z,997.23
2022-10-22T02:54:00.053Z,997.22
2022-10-22T02:55:00.031Z,997.18
2022-10-22T02:56:00.031Z,997.15
2022-10-22T02:57:00.022Z,997.16
2022-10-22T02:57:59.993Z,997.14
2022-10-22T02:58:59.973Z,997.10
2022-10-22T02:59:59.969Z,997.09
2022-10-22T03:01:00.008Z,997.09
2022-10-22T03:01:59.952Z,997.07
2022-10-22T03:02:59.923Z,997.07
2022-10-22T03:03:59.921Z,997.05
2022-10-22T03:04:59.902Z,997.04
2022-10-22T03:05:59.883Z,996.99
2022-10-22T03:06:59.893Z,996.97
2022-10-22T03:07:59.862Z,997.00
2022-10-22T03:08:59.900Z,996.99
2022-10-22T03:09:59.844Z,996.97
2022-10-22T03:10:59.817Z,996.97
2022-10-22T03:11:59.852Z,997.02
2022-10-22T03:12:59.793Z,997.05
2022-10-22T03:13:59.781Z,997.06
2022-10-22T03:14:59.784Z,997.09
2022-10-22T03:15:59.753Z,997.07
2022-10-22T03:16:59.753Z,997.10
2022-10-22T03:17:59.733Z,997.12
2022-10-22T03:18:59.824Z,997.12
2022-10-22T03:19:59.704Z,997.13
2022-10-22T03:20:59.684Z,997.09
2022-10-22T03:21:59.688Z,997.09
2022-10-22T03:22:59.653Z,997.09
2022-10-22T03:23:59.644Z,997.11
2022-10-22T03:24:59.633Z,997.09
2022-10-22T03:26:59.623Z,997.10
2022-10-22T03:27:59.601Z,997.14
2022-10-22T03:28:59.574Z,997.17
2022-10-22T03:29:59.564Z,997.19
2022-10-22T03:30:59.545Z,997.14
2022-10-22T03:31:59.564Z,997.15
2022-10-22T03:32:59.534Z,997.14
2022-10-22T03:33:59.513Z,997.19
2022-10-22T03:35:59.484Z,997.24
2022-10-22T03:36:59.485Z,997.25
2022-10-22T03:37:59.618Z,997.24
2022-10-22T03:38:59.477Z,997.21
2022-10-22T03:39:59.443Z,997.23
2022-10-22T03:40:59.414Z,997.22
2022-10-22T03:41:59.432Z,997.22
2022-10-22T03:42:59.385Z,997.24
2022-10-22T03:43:59.375Z,997.23
2022-10-22T03:44:59.376Z,997.25
2022-10-22T03:45:59.355Z,997.23
2022-10-22T03:47:02.492Z,997.21
2022-10-22T03:47:59.335Z,997.25
2022-10-22T03:48:59.305Z,997.21
2022-10-22T03:49:59.313Z,997.22
2022-10-22T03:50:59.285Z,997.24
2022-10-22T03:51:59.286Z,997.26
2022-10-22T03:52:59.264Z,997.22
2022-10-22T03:53:59.268Z,997.25
2022-10-22T03:54:59.236Z,997.26
2022-10-22T03:55:59.232Z,997.25
2022-10-22T03:56:59.247Z,997.30
2022-10-22T03:57:59.198Z,997.29
2022-10-22T03:58:59.176Z,997.34
2022-10-22T03:59:59.167Z,997.38
2022-10-22T04:00:59.161Z,997.45
2022-10-22T04:01:59.136Z,997.44
2022-10-22T04:02:59.126Z,997.41
2022-10-22T04:03:59.137Z,997.40
2022-10-22T04:04:59.161Z,997.45
2022-10-22T04:05:59.092Z,997.44
2022-10-22T04:06:59.097Z,997.48
2022-10-22T04:07:59.058Z,997.50
2022-10-22T04:08:59.127Z,997.49
2022-10-22T04:09:59.042Z,997.48
2022-10-22T04:10:59.015Z,997.52
2022-10-22T04:11:59.007Z,997.52
2022-10-22T04:12:59.007Z,997.51
2022-10-22T04:13:58.978Z,997.54
2022-10-22T04:14:58.967Z,997.57
2022-10-22T04:15:58.957Z,997.62
2022-10-22T04:16:58.937Z,997.63
2022-10-22T04:17:58.937Z,997.65
2022-10-22T04:18:58.907Z,997.68
2022-10-22T04:19:58.911Z,997.69
2022-10-22T04:20:58.888Z,997.70
2022-10-22T04:21:58.869Z,997.65
2022-10-22T04:22:58.875Z,997.67
2022-10-22T04:23:58.847Z,997.68
2022-10-22T04:24:58.828Z,997.73
2022-10-22T04:25:58.818Z,997.72
2022-10-22T04:26:58.799Z,997.77
2022-10-22T04:27:58.807Z,997.73
2022-10-22T04:28:58.785Z,997.76
2022-10-22T04:29:58.779Z,997.78
2022-10-22T04:30:58.758Z,997.78
2022-10-22T04:31:58.745Z,997.83
2022-10-22T04:32:58.757Z,997.83
2022-10-22T04:33:58.737Z,997.86
2022-10-22T04:34:58.697Z,997.86
2022-10-22T04:35:58.705Z,997.88
2022-10-22T04:36:58.669Z,997.90
2022-10-22T04:37:58.669Z,997.89
2022-10-22T04:38:58.649Z,997.88
2022-10-22T04:39:58.656Z,997.87
2022-10-22T04:40:58.638Z,997.91
2022-10-22T04:41:58.607Z,997.86
2022-10-22T04:42:58.649Z,997.87
2022-10-22T04:43:58.598Z,997.87
2022-10-22T04:44:58.593Z,997.85
2022-10-22T04:45:58.551Z,997.84
2022-10-22T04:46:58.539Z,997.86
2022-10-22T04:47:58.560Z,997.90
2022-10-22T04:48:58.519Z,997.90
2022-10-22T04:49:58.497Z,997.88
2022-10-22T04:50:58.489Z,997.89
2022-10-22T04:51:58.470Z,997.89
2022-10-22T04:52:58.524Z,997.93
2022-10-22T04:53:58.452Z,997.97
2022-10-22T04:54:58.448Z,997.96
2022-10-22T04:55:58.428Z,997.97
2022-10-22T04:56:58.409Z,997.99
2022-10-22T04:57:58.409Z,997.97
2022-10-22T04:58:58.390Z,997.99
2022-10-22T04:59:58.375Z,998.02
2022-10-22T05:00:58.433Z,997.98
2022-10-22T05:01:58.342Z,998.00
2022-10-22T05:02:58.363Z,998.02
2022-10-22T05:03:58.305Z,998.04
2022-10-22T05:04:58.321Z,998.02
2022-10-22T05:05:58.304Z,998.01
2022-10-22T05:06:58.284Z,998.01
2022-10-22T05:07:58.271Z,998.06
2022-10-22T05:08:58.330Z,998.08
2022-10-22T05:09:58.220Z,998.01
2022-10-22T05:10:58.221Z,998.07
2022-10-22T05:11:58.222Z,998.05
2022-10-22T05:12:58.212Z,998.12
2022-10-22T05:13:58.180Z,998.12
2022-10-22T05:14:58.182Z,998.13
2022-10-22T05:15:58.151Z,998.15
2022-10-22T05:16:58.141Z,998.17
2022-10-22T05:17:58.164Z,998.13
2022-10-22T05:18:58.140Z,998.17
2022-10-22T05:19:58.100Z,998.17
2022-10-22T05:20:58.092Z,998.16
2022-10-22T05:21:58.080Z,998.19
2022-10-22T05:22:58.082Z,998.17
2022-10-22T05:23:58.033Z,998.17
2022-10-22T05:24:58.043Z,998.18
2022-10-22T05:25:58.003Z,998.16
2022-10-22T05:26:58.015Z,998.16
2022-10-22T05:28:00.237Z,998.16
2022-10-22T05:28:57.983Z,998.21
2022-10-22T05:29:57.973Z,998.21
2022-10-22T05:30:57.962Z,998.22
2022-10-22T05:31:57.933Z,998.21
2022-10-22T05:32:57.952Z,998.21
2022-10-22T05:33:57.902Z,998.25
2022-10-22T05:34:57.902Z,998.22
2022-10-22T05:35:57.883Z,998.23
2022-10-22T05:36:57.880Z,998.23
2022-10-22T05:37:57.885Z,998.30
2022-10-22T05:38:57.870Z,998.28
2022-10-22T05:40:06.781Z,998.29
2022-10-22T05:40:58.844Z,998.27
2022-10-22T05:41:57.792Z,998.26
2022-10-22T05:42:57.803Z,998.28
2022-10-22T05:43:57.851Z,998.24
2022-10-22T05:44:57.776Z,998.25
2022-10-22T05:45:57.752Z,998.24
2022-10-22T05:46:57.743Z,998.27
2022-10-22T05:47:57.721Z,998.24
2022-10-22T05:48:57.732Z,998.26
2022-10-22T05:49:57.694Z,998.24
2022-10-22T05:50:57.696Z,998.24
2022-10-22T05:51:57.664Z,998.26
2022-10-22T05:52:57.663Z,998.24
2022-10-22T05:53:57.657Z,998.24
2022-10-22T05:54:57.631Z,998.23
2022-10-22T05:55:57.614Z,998.20
2022-10-22T05:56:57.636Z,998.23
2022-10-22T05:57:57.585Z,998.24
2022-10-22T05:58:57.663Z,998.25
2022-10-22T05:59:57.573Z,998.29
2022-10-22T06:00:57.572Z,998.29
2022-10-22T06:01:57.576Z,998.29
2022-10-22T06:02:57.554Z,998.33
2022-10-22T06:03:57.505Z,998.32
2022-10-22T06:04:57.505Z,998.38
2022-10-22T06:05:57.493Z,998.39
2022-10-22T06:06:57.474Z,998.44
2022-10-22T06:07:57.466Z,998.44
2022-10-22T06:08:57.541Z,998.46
2022-10-22T06:09:57.436Z,998.46
2022-10-22T06:10:57.425Z,998.47
2022-10-22T06:11:57.413Z,998.46
2022-10-22T06:12:57.394Z,998.41
2022-10-22T06:13:57.393Z,998.40
2022-10-22T06:14:57.376Z,998.41
2022-10-22T06:15:57.346Z,998.39
2022-10-22T06:16:57.345Z,998.39
2022-10-22T06:17:57.336Z,998.37
2022-10-22T06:18:57.326Z,998.41
2022-10-22T06:19:57.348Z,998.41
2022-10-22T06:20:57.295Z,998.38
2022-10-22T06:21:57.266Z,998.42
2022-10-22T06:22:57.275Z,998.42
2022-10-22T06:23:57.246Z,998.41
2022-10-22T06:24:57.236Z,998.43
2022-10-22T06:25:57.224Z,998.47
2022-10-22T06:26:57.214Z,998.50
2022-10-22T06:27:57.207Z,998.49
2022-10-22T06:28:57.180Z,998.54
2022-10-22T06:29:57.167Z,998.56
2022-10-22T06:30:57.186Z,998.57
2022-10-22T06:31:57.142Z,998.62
2022-10-22T06:32:57.138Z,998.61
2022-10-22T06:33:57.134Z,998.63
2022-10-22T06:34:57.102Z,998.65
2022-10-22T06:35:57.088Z,998.69
2022-10-22T06:36:57.067Z,998.70
2022-10-22T06:37:57.057Z,998.73
2022-10-22T06:38:57.085Z,998.75
2022-10-22T06:39:57.035Z,998.76
2022-10-22T06:40:57.017Z,998.76
2022-10-22T06:41:56.997Z,998.80
2022-10-22T06:42:56.987Z,998.81
2022-10-22T06:43:56.989Z,998.86
2022-10-22T06:44:57.005Z,998.88
2022-10-22T06:45:56.956Z,998.90
2022-10-22T06:46:56.938Z,998.93
2022-10-22T06:47:56.916Z,998.95
2022-10-22T06:48:56.927Z,998.96
2022-10-22T06:49:56.897Z,998.96
2022-10-22T06:50:56.889Z,998.96
2022-10-22T06:51:56.877Z,998.97
2022-10-22T06:52:56.858Z,998.99
2022-10-22T06:53:56.997Z,999.02
2022-10-22T06:54:56.836Z,999.04
2022-10-22T06:55:56.821Z,999.08
2022-10-22T06:56:56.812Z,999.09
2022-10-22T06:57:56.788Z,999.14
2022-10-22T06:58:56.819Z,999.17
2022-10-22T06:59:56.768Z,999.20
2022-10-22T07:00:56.781Z,999.19
2022-10-22T07:01:56.743Z,999.23
2022-10-22T07:02:59.166Z,999.23
2022-10-22T07:03:56.728Z,999.25
2022-10-22T07:04:56.699Z,999.29
2022-10-22T07:05:56.689Z,999.29
2022-10-22T07:06:56.670Z,999.30
2022-10-22T07:07:56.680Z,999.33
2022-10-22T07:08:56.797Z,999.32
2022-10-22T07:09:56.622Z,999.34
2022-10-22T07:10:56.619Z,999.35
2022-10-22T07:11:56.610Z,999.36
2022-10-22T07:12:56.591Z,999.39
2022-10-22T07:13:56.588Z,999.41
2022-10-22T07:14:56.577Z,999.41
2022-10-22T07:15:56.554Z,999.44
2022-10-22T07:16:56.540Z,999.45
2022-10-22T07:17:56.530Z,999.43
2022-10-22T07:18:56.530Z,999.46
2022-10-22T07:19:56.501Z,999.48
2022-10-22T07:20:56.503Z,999.49
2022-10-22T07:21:56.471Z,999.53
2022-10-22T07:22:56.469Z,999.54
2022-10-22T07:23:56.731Z,999.54
2022-10-22T07:24:56.456Z,999.62
2022-10-22T07:26:56.457Z,999.64
2022-10-22T07:27:56.373Z,999.69
2022-10-22T07:28:56.381Z,999.71
2022-10-22T07:29:56.381Z,999.72
2022-10-22T07:30:56.380Z,999.68
2022-10-22T07:31:56.466Z,999.69
2022-10-22T07:32:56.333Z,999.67
2022-10-22T07:33:56.311Z,999.68
2022-10-22T07:34:56.310Z,999.68
2022-10-22T07:35:56.311Z,999.71
2022-10-22T07:36:56.268Z,999.70
2022-10-22T07:37:56.280Z,999.74
2022-10-22T07:38:56.251Z,999.76
2022-10-22T07:39:59.241Z,999.78
2022-10-22T07:40:57.250Z,999.77
2022-10-22T07:41:56.204Z,999.77
2022-10-22T07:42:56.193Z,999.79
2022-10-22T07:43:56.221Z,999.77
2022-10-22T07:44:56.184Z,999.80
2022-10-22T07:45:56.151Z,999.79
2022-10-22T07:46:56.143Z,999.83
2022-10-22T07:47:56.144Z,999.81
2022-10-22T07:48:56.119Z,999.87
2022-10-22T07:49:56.144Z,999.86
2022-10-22T07:50:56.094Z,999.90
2022-10-22T07:51:56.072Z,999.91
2022-10-22T07:52:57.557Z,999.86
2022-10-22T07:53:56.070Z,999.88
2022-10-22T07:54:56.052Z,999.87
2022-10-22T07:55:56.022Z,999.88
2022-10-22T07:56:56.005Z,999.88
2022-10-22T07:57:55.984Z,999.91
2022-10-22T07:58:56.073Z,999.91
2022-10-22T07:59:56.002Z,999.90
2022-10-22T08:00:55.942Z,999.90
2022-10-22T08:01:55.954Z,999.93
2022-10-22T08:02:55.932Z,999.91
2022-10-22T08:03:55.917Z,999.89
2022-10-22T08:04:55.912Z,999.96
2022-10-22T08:05:55.897Z,999.95
2022-10-22T08:06:55.903Z,999.99
2022-10-22T08:07:55.871Z,999.96
2022-10-22T08:08:55.901Z,999.99
2022-10-22T08:09:55.857Z,999.97
2022-10-22T08:10:55.906Z,999.98
2022-10-22T08:11:55.806Z,1000.02
2022-10-22T08:12:55.835Z,1000.02
2022-10-22T08:13:55.775Z,999.99
2022-10-22T08:14:55.784Z,1000.04
2022-10-22T08:15:57.561Z,1000.04
2022-10-22T08:16:55.743Z,1000.05
2022-10-22T08:17:55.723Z,1000.05
2022-10-22T08:18:55.714Z,1000.08
2022-10-22T08:19:55.703Z,1000.12
2022-10-22T08:20:55.771Z,1000.13
2022-10-22T08:21:55.663Z,1000.14
2022-10-22T08:22:56.661Z,1000.13
2022-10-22T08:23:55.697Z,1000.16
2022-10-22T08:24:55.657Z,1000.17
2022-10-22T08:25:55.652Z,1000.18
2022-10-22T08:26:55.609Z,1000.19
2022-10-22T08:27:55.583Z,1000.20
2022-10-22T08:28:55.582Z,1000.23
2022-10-22T08:29:55.574Z,1000.19
2022-10-22T08:30:55.553Z,1000.19
2022-10-22T08:31:55.535Z,1000.22
2022-10-22T08:32:55.544Z,1000.26
2022-10-22T08:33:55.507Z,1000.24
2022-10-22T08:34:55.575Z,1000.28
2022-10-22T08:35:55.486Z,1000.24
2022-10-22T08:36:55.474Z,1000.25
2022-10-22T08:37:55.455Z,1000.32
2022-10-22T08:38:55.465Z,1000.31
2022-10-22T08:39:55.444Z,1000.32
2022-10-22T08:40:55.419Z,1000.37
2022-10-22T08:41:55.416Z,1000.38
2022-10-22T08:42:55.399Z,1000.39
2022-10-22T08:43:55.411Z,1000.38
2022-10-22T08:44:55.383Z,1000.38
2022-10-22T08:45:55.350Z,1000.41
2022-10-22T08:46:55.339Z,1000.44
2022-10-22T08:47:55.336Z,1000.42
2022-10-22T08:48:55.390Z,1000.42
2022-10-22T08:49:55.309Z,1000.40
2022-10-22T08:50:55.286Z,1000.36
2022-10-22T08:51:55.266Z,1000.39
2022-10-22T08:52:55.257Z,1000.38
2022-10-22T08:53:55.250Z,1000.36
2022-10-22T08:54:55.246Z,1000.39
2022-10-22T08:55:55.217Z,1000.38
2022-10-22T08:56:55.207Z,1000.40
2022-10-22T08:57:55.231Z,1000.41
2022-10-22T08:58:55.186Z,1000.45
2022-10-22T08:59:55.184Z,1000.48
2022-10-22T09:00:55.149Z,1000.42
2022-10-22T09:01:55.137Z,1000.47
2022-10-22T09:02:55.138Z,1000.45
2022-10-22T09:03:55.168Z,1000.44
2022-10-22T09:04:55.136Z,1000.47
2022-10-22T09:05:55.142Z,1000.43
2022-10-22T09:06:55.078Z,1000.42
2022-10-22T09:07:55.074Z,1000.45
2022-10-22T09:08:55.076Z,1000.42
2022-10-22T09:09:55.049Z,1000.43
2022-10-22T09:10:55.035Z,1000.44
2022-10-22T09:11:55.020Z,1000.47
2022-10-22T09:12:54.988Z,1000.51
2022-10-22T09:13:54.979Z,1000.51
2022-10-22T09:14:54.979Z,1000.51
2022-10-22T09:15:54.973Z,1000.54
2022-10-22T09:16:54.946Z,1000.51
2022-10-22T09:17:54.929Z,1000.55
2022-10-22T09:18:54.900Z,1000.52
2022-10-22T09:19:54.910Z,1000.53
2022-10-22T09:20:54.879Z,1000.56
2022-10-22T09:21:54.880Z,1000.55
2022-10-22T09:22:54.866Z,1000.51
2022-10-22T09:23:54.849Z,1000.54
2022-10-22T09:24:54.886Z,1000.59
2022-10-22T09:25:54.821Z,1000.64
2022-10-22T09:26:54.808Z,1000.60
2022-10-22T09:27:54.789Z,1000.55
2022-10-22T09:28:54.781Z,1000.53
2022-10-22T09:29:54.910Z,1000.54
2022-10-22T09:30:54.771Z,1000.54
2022-10-22T09:31:54.740Z,1000.58
2022-10-22T09:32:54.719Z,1000.48
2022-10-22T09:33:54.719Z,1000.57
2022-10-22T09:34:54.718Z,1000.59
2022-10-22T09:35:54.690Z,1000.54
2022-10-22T09:36:54.668Z,1000.56
2022-10-22T09:37:54.659Z,1000.56
2022-10-22T09:38:54.649Z,1000.61
2022-10-22T09:39:54.663Z,1000.58
2022-10-22T09:40:54.610Z,1000.58
2022-10-22T09:41:54.612Z,1000.61
2022-10-22T09:42:54.589Z,1000.59
2022-10-22T09:43:54.582Z,1000.62
2022-10-22T09:44:54.590Z,1000.61
2022-10-22T09:45:54.541Z,1000.61
2022-10-22T09:46:54.548Z,1000.60
2022-10-22T09:48:01.782Z,1000.65
2022-10-22T09:48:55.560Z,1000.67
2022-10-22T09:49:54.516Z,1000.65
2022-10-22T09:50:54.500Z,1000.65
2022-10-22T09:51:54.480Z,1000.61
2022-10-22T09:52:54.471Z,1000.66
2022-10-22T09:53:54.451Z,1000.63
2022-10-22T09:54:54.451Z,1000.70
2022-10-22T09:56:54.411Z,1000.67
2022-10-22T09:57:54.401Z,1000.67
2022-10-22T09:58:54.399Z,1000.64
2022-10-22T09:59:54.360Z,1000.68
2022-10-22T10:00:54.371Z,1000.60
2022-10-22T10:01:54.368Z,1000.57
2022-10-22T10:02:54.366Z,1000.64
2022-10-22T10:03:55.541Z,1000.61
2022-10-22T10:04:55.430Z,1000.62
2022-10-22T10:06:03.046Z,1000.61
2022-10-22T10:06:55.291Z,1000.66
2022-10-22T10:07:54.262Z,1000.70
2022-10-22T10:08:54.298Z,1000.66
2022-10-22T10:09:54.272Z,1000.66
2022-10-22T10:10:54.222Z,1000.67
2022-10-22T10:11:54.233Z,1000.70
2022-10-22T10:12:54.183Z,1000.72
2022-10-22T10:13:54.182Z,1000.75
2022-10-22T10:14:54.156Z,1000.74
2022-10-22T10:15:54.173Z,1000.75
2022-10-22T10:16:54.132Z,1000.72
2022-10-22T10:17:54.131Z,1000.73
2022-10-22T10:18:54.103Z,1000.74
2022-10-22T10:19:54.094Z,1000.67
2022-10-22T10:20:54.094Z,1000.72
2022-10-22T10:21:54.074Z,1000.69
2022-10-22T10:22:54.068Z,1000.67
2022-10-22T10:23:54.045Z,1000.65
2022-10-22T10:24:54.055Z,1000.67
2022-10-22T10:25:54.045Z,1000.66
2022-10-22T10:26:54.011Z,1000.64
2022-10-22T10:27:53.993Z,1000.59
2022-10-22T10:28:53.974Z,1000.58
2022-10-22T10:29:53.965Z,1000.58
2022-10-22T10:30:53.975Z,1000.58
2022-10-22T10:31:53.963Z,1000.54
2022-10-22T10:32:53.925Z,1000.58
2022-10-22T10:33:53.923Z,1000.63
2022-10-22T10:34:53.895Z,1000.68
2022-10-22T10:35:53.893Z,1000.62
2022-10-22T10:36:53.888Z,1000.68
2022-10-22T10:37:53.873Z,1000.71
2022-10-22T10:38:53.858Z,1000.74
2022-10-22T10:39:53.844Z,1000.71
2022-10-22T10:40:53.824Z,1000.73
2022-10-22T10:41:53.826Z,1000.75
2022-10-22T10:42:53.797Z,1000.76
2022-10-22T10:43:53.786Z,1000.71
2022-10-22T10:44:53.774Z,1000.71
2022-10-22T10:45:55.712Z,1000.72
2022-10-22T10:46:53.776Z,1000.68
2022-10-22T10:47:53.736Z,1000.69
2022-10-22T10:48:53.716Z,1000.67
2022-10-22T10:49:53.715Z,1000.72
2022-10-22T10:50:53.687Z,1000.69
2022-10-22T10:51:53.699Z,1000.72
2022-10-22T10:52:53.669Z,1000.67
2022-10-22T10:53:53.656Z,1000.72
2022-10-22T10:54:53.647Z,1000.72
2022-10-22T10:55:53.630Z,1000.75
2022-10-22T10:56:53.631Z,1000.76
2022-10-22T10:57:53.606Z,1000.70
2022-10-22T10:58:53.586Z,1000.74
2022-10-22T10:59:53.576Z,1000.75
2022-10-22T11:00:53.559Z,1000.74
2022-10-22T11:01:53.636Z,1000.74
2022-10-22T11:02:53.586Z,1000.78
2022-10-22T11:03:53.529Z,1000.75
2022-10-22T11:04:53.517Z,1000.75
2022-10-22T11:05:53.497Z,1000.76
2022-10-22T11:06:58.638Z,1000.74
2022-10-22T11:07:56.118Z,1000.78
2022-10-22T11:08:53.470Z,1000.81
2022-10-22T11:09:53.440Z,1000.80
2022-10-22T11:10:53.421Z,1000.80
2022-10-22T11:11:53.443Z,1000.80
2022-10-22T11:12:53.400Z,1000.82
2022-10-22T11:13:53.375Z,1000.82
2022-10-22T11:14:53.361Z,1000.86
2022-10-22T11:15:53.362Z,1000.82
2022-10-22T11:16:53.353Z,1000.86
2022-10-22T11:17:53.340Z,1000.87
2022-10-22T11:18:53.319Z,1000.85
2022-10-22T11:19:56.637Z,1000.82
2022-10-22T11:20:54.290Z,1000.82
2022-10-22T11:21:53.301Z,1000.85
2022-10-22T11:23:17.747Z,1000.87
2022-10-22T11:23:54.260Z,1000.84
2022-10-22T11:24:53.241Z,1000.84
2022-10-22T11:25:53.231Z,1000.91
2022-10-22T11:26:53.223Z,1000.88
2022-10-22T11:27:53.239Z,1000.90
2022-10-22T11:28:53.190Z,1000.85
2022-10-22T11:29:53.191Z,1000.82
2022-10-22T11:30:53.161Z,1000.85
2022-10-22T11:31:53.173Z,1000.89
2022-10-22T11:32:53.136Z,1000.86
2022-10-22T11:33:57.315Z,1000.86
2022-10-22T11:34:54.113Z,1000.88
2022-10-22T11:35:53.103Z,1000.86
2022-10-22T11:36:53.091Z,1000.79
2022-10-22T11:37:53.072Z,1000.86
2022-10-22T11:38:53.062Z,1000.78
2022-10-22T11:39:53.064Z,1000.83
2022-10-22T11:40:53.033Z,1000.79
2022-10-22T11:41:53.036Z,1000.80
2022-10-22T11:42:53.005Z,1000.80
2022-10-22T11:43:52.993Z,1000.81
2022-10-22T11:45:52.974Z,1000.82
2022-10-22T11:46:52.953Z,1000.78
2022-10-22T11:47:52.956Z,1000.71
2022-10-22T11:48:52.936Z,1000.75
2022-10-22T11:49:52.914Z,1000.67
2022-10-22T11:50:52.940Z,1000.71
2022-10-22T11:51:52.893Z,1000.65
2022-10-22T11:52:52.885Z,1000.60
2022-10-22T11:53:52.872Z,1000.64
2022-10-22T11:54:52.854Z,1000.65
2022-10-22T11:55:52.846Z,1000.63
2022-10-22T11:56:52.825Z,1000.63
2022-10-22T11:57:52.835Z,1000.62
2022-10-22T11:58:54.802Z,1000.65
2022-10-22T11:59:52.786Z,1000.63
2022-10-22T12:00:52.761Z,1000.68
2022-10-22T12:01:52.737Z,1000.69
2022-10-22T12:02:52.745Z,1000.68
2022-10-22T12:03:52.725Z,1000.72
2022-10-22T12:04:52.787Z,1000.63
2022-10-22T12:05:52.716Z,1000.67
2022-10-22T12:06:52.677Z,1000.66
2022-10-22T12:07:52.714Z,1000.67
2022-10-22T12:08:52.695Z,1000.70
2022-10-22T12:10:52.627Z,1000.71
2022-10-22T12:11:52.648Z,1000.71
2022-10-22T12:12:52.626Z,1000.68
2022-10-22T12:13:52.611Z,1000.69
2022-10-22T12:14:52.616Z,1000.70
2022-10-22T12:15:52.578Z,1000.65
2022-10-22T12:16:57.041Z,1000.65
2022-10-22T12:17:53.555Z,1000.62
2022-10-22T12:18:52.526Z,1000.64
2022-10-22T12:19:52.520Z,1000.57
2022-10-22T12:20:52.497Z,1000.63
2022-10-22T12:21:52.496Z,1000.57
2022-10-22T12:22:52.494Z,1000.56
2022-10-22T12:23:52.489Z,1000.55
2022-10-22T12:24:52.445Z,1000.62
2022-10-22T12:25:52.516Z,1000.60
2022-10-22T12:26:52.706Z,1000.65